Date,TemperatureHighF,TemperatureAvgF,TemperatureLowF,DewpointHighF,DewpointAvgF,DewpointLowF,HumidityHigh,HumidityAvg,HumidityLow,PressureMaxIn,PressureMinIn,WindSpeedMaxMPH,WindSpeedAvgMPH,GustSpeedMaxMPH,PrecipitationSumIn
2013-1-1,33.9,32.1,27.4,31.8,28.9,22.9,92,88,81,30.17,30.07,9,1,11,0.00
2013-1-2,33.0,26.5,19.7,23.7,21.0,17.6,92,80,62,30.29,30.16,8,1,12,0.00
2013-1-3,36.0,28.2,20.6,26.5,21.1,16.5,85,75,57,30.37,30.24,15,4,22,0.00
2013-1-4,37.3,32.4,29.3,27.6,25.6,24.1,84,76,62,30.39,30.32,27,7,29,0.00
2013-1-5,42.2,33.8,26.1,32.3,28.0,23.3,90,80,61,30.41,30.20,10,3,16,0.01
2013-1-6,40.0,34.9,28.6,35.0,29.9,23.3,87,82,78,30.38,30.06,23,6,26,0.00
2013-1-7,41.5,32.0,24.4,30.6,26.4,22.1,92,80,62,30.51,30.28,9,2,12,0.00
2013-1-8,52.5,39.3,28.0,38.0,31.6,24.8,89,75,55,30.36,30.25,20,2,20,0.00
2013-1-9,54.6,46.9,39.9,47.5,40.0,33.5,91,77,63,30.52,30.24,15,4,21,0.00
2013-1-10,45.7,40.1,34.7,42.7,36.2,31.8,91,86,70,30.53,30.12,9,3,14,0.01
2013-1-11,63.2,55.1,45.7,54.9,50.3,42.5,92,84,69,30.12,29.90,16,5,21,0.03
2013-1-12,65.3,61.3,55.4,62.0,58.0,52.1,90,89,87,30.02,29.81,13,4,24,0.00
2013-1-13,66.5,55.3,36.1,62.2,51.7,33.7,91,88,82,30.13,29.74,20,7,29,0.04
2013-1-14,36.2,28.1,25.2,33.4,24.8,22.1,92,87,80,30.47,30.12,12,3,18,0.00
2013-1-15,32.1,28.8,24.4,29.5,25.1,21.9,92,86,80,30.41,30.11,13,3,13,0.00
2013-1-16,35.9,32.3,30.1,31.2,29.4,27.8,91,89,79,30.12,30.01,9,3,11,0.01
2013-1-17,43.4,34.6,29.5,33.4,29.1,24.1,90,81,62,30.41,30.13,10,2,13,0.00
2013-1-18,40.4,31.3,21.1,27.5,22.7,17.8,87,71,52,30.57,30.28,15,4,18,0.00
2013-1-19,54.1,45.6,38.2,33.3,30.2,26.5,68,55,41,30.29,29.95,27,9,31,0.00
2013-1-20,46.9,35.9,28.4,37.5,21.2,12.6,75,55,40,30.24,29.95,25,7,33,0.00
2013-1-21,28.4,23.0,14.3,19.2,12.6,3.0,78,64,50,30.30,30.12,23,8,28,0.00
2013-1-22,19.6,14.1,8.7,4.6,2.8,1.5,80,61,46,30.46,30.28,18,6,21,0.00
2013-1-23,23.6,18.9,12.5,13.8,8.3,4.2,76,63,55,30.42,30.15,11,2,12,0.00
2013-1-24,25.0,20.8,16.4,16.4,8.2,3.9,71,58,42,30.63,30.15,15,4,20,0.00
2013-1-25,27.0,23.2,20.2,23.4,16.9,9.4,90,77,60,30.49,30.09,12,4,14,0.00
2013-1-26,33.7,26.5,21.4,22.9,20.6,18.2,91,79,62,30.48,30.18,9,3,12,0.01
2013-1-27,38.2,30.0,20.6,35.0,24.9,17.5,90,82,67,30.48,30.20,9,4,11,0.00
2013-1-28,54.2,48.6,38.3,51.0,45.1,34.9,92,88,82,30.21,30.06,20,7,30,0.00
2013-1-29,65.8,59.8,53.5,60.0,55.5,50.6,92,86,76,30.07,29.60,25,7,29,0.00
2013-1-30,68.1,53.9,33.2,61.4,49.6,26.5,92,85,76,29.60,29.27,28,10,38,0.20
2013-1-31,33.3,27.7,19.2,26.1,21.2,14.4,91,76,59,30.06,29.56,30,12,34,0.00
2013-2-1,19.3,13.5,8.1,16.0,6.6,1.8,88,73,64,30.47,30.06,21,7,28,0.00
2013-2-2,31.6,23.6,12.2,27.9,20.3,7.5,91,87,79,30.40,30.05,16,4,25,0.01
2013-2-3,29.0,23.7,19.9,25.4,19.7,15.4,89,84,78,30.17,29.97,19,6,25,0.00
2013-2-4,36.6,28.2,19.7,33.7,24.8,17.2,96,87,72,30.17,29.86,16,3,18,0.00
2013-2-5,39.2,35.4,29.7,35.4,32.0,27.4,92,87,83,30.03,29.87,11,3,13,0.00
2013-2-6,38.6,35.1,30.8,34.2,30.5,27.6,89,83,77,30.28,30.03,9,2,15,0.00
2013-2-7,61.7,45.1,31.5,42.1,35.3,28.4,90,71,45,30.23,29.83,12,3,19,0.00
2013-2-8,52.5,38.3,32.2,45.4,33.5,25.2,90,83,60,30.35,29.80,20,7,28,0.00
2013-2-9,42.2,33.2,24.4,26.0,23.0,20.0,85,67,46,30.46,30.25,9,2,10,0.00
2013-2-10,56.3,43.1,33.2,45.5,33.0,22.8,89,69,45,30.26,29.81,19,5,24,0.00
2013-2-11,54.0,48.2,39.5,50.6,38.2,30.3,89,69,53,30.06,29.79,28,10,32,0.00
2013-2-12,49.7,40.2,31.9,30.9,28.8,26.9,89,65,44,30.16,29.91,12,3,14,0.00
2013-2-13,39.1,33.7,31.1,32.4,29.6,27.9,90,85,65,29.92,29.77,9,2,12,0.01
2013-2-14,53.2,41.0,32.2,41.0,34.7,29.6,90,79,56,30.02,29.86,18,6,23,0.00
2013-2-15,41.1,35.3,27.4,33.3,29.6,22.9,88,80,65,30.17,30.00,18,4,23,0.00
2013-2-16,30.2,25.2,20.6,23.3,18.5,12.6,90,76,56,30.17,30.07,19,4,24,0.00
2013-2-17,32.3,23.9,16.0,16.2,12.2,8.4,89,63,39,30.29,30.15,10,2,13,0.00
2013-2-18,59.7,41.6,23.1,41.3,27.5,11.2,81,58,46,30.25,29.78,26,7,42,0.01
2013-2-19,46.8,34.2,25.3,41.8,27.7,16.6,90,77,64,30.14,29.68,27,12,33,0.00
2013-2-20,29.9,24.6,20.6,18.7,15.8,13.3,80,69,58,30.34,30.14,19,6,22,0.00
2013-2-21,32.1,26.5,18.5,27.5,20.5,14.2,89,78,69,30.40,30.08,24,4,25,0.01
2013-2-22,45.2,37.1,30.1,41.6,33.9,27.4,90,88,85,30.11,29.92,19,3,19,0.01
2013-2-23,44.9,37.4,32.9,34.2,30.1,27.0,91,76,55,30.02,29.92,14,4,15,0.00
2013-2-24,43.1,33.8,26.3,30.1,26.1,23.0,89,74,55,30.17,29.95,12,3,14,0.00
2013-2-25,46.4,36.5,26.4,31.3,26.3,22.5,86,67,51,30.19,29.92,13,4,18,0.00
2013-2-26,50.8,42.8,36.5,48.1,37.7,26.0,92,83,60,29.92,29.37,19,6,24,0.01
2013-2-27,41.7,37.4,33.9,39.0,34.3,31.0,90,88,81,29.75,29.54,19,7,24,0.00
2013-2-28,36.9,34.8,32.7,34.0,31.9,29.8,90,89,87,29.97,29.72,15,7,21,0.00
2013-3-1,35.6,34.0,30.8,32.7,30.8,26.3,90,88,83,30.06,29.95,8,2,11,0.00
2013-3-2,30.9,28.5,26.8,26.3,23.8,22.4,87,82,78,30.12,30.03,9,3,12,0.00
2013-3-3,32.2,28.8,25.6,25.4,22.5,19.4,90,77,66,30.12,30.07,13,3,19,0.00
2013-3-4,42.7,33.2,22.6,29.2,23.7,18.8,86,69,49,30.20,30.02,9,2,14,0.00
2013-3-5,40.2,37.1,30.4,36.8,31.7,27.0,92,81,63,30.04,29.58,22,6,27,0.00
2013-3-6,31.7,30.1,28.5,28.6,27.0,25.4,88,88,88,30.29,29.67,20,6,25,0.00
2013-3-7,36.1,32.8,30.7,33.2,29.5,27.6,90,87,78,30.42,30.28,8,3,9,0.00
2013-3-8,44.9,36.1,27.3,30.9,27.9,24.5,92,73,52,30.50,30.39,8,1,11,0.00
2013-3-9,58.1,44.3,30.5,38.4,33.2,27.4,89,67,43,30.41,30.06,12,3,14,0.00
2013-3-10,68.6,59.4,52.5,45.3,38.8,36.2,61,47,34,30.06,29.82,15,5,22,0.00
2013-3-11,58.3,48.8,38.5,50.1,44.2,33.9,89,84,63,29.86,29.62,20,7,31,0.01
2013-3-12,45.8,37.7,34.7,34.1,31.1,28.3,87,77,58,30.08,29.86,21,7,28,0.00
2013-3-13,34.4,30.4,27.6,31.2,24.7,19.5,95,79,67,30.36,30.03,26,9,27,0.00
2013-3-14,44.5,33.3,22.9,28.0,21.9,18.9,88,66,37,30.40,30.21,14,4,14,0.00
2013-3-15,53.4,42.0,30.1,41.3,34.8,27.2,89,76,62,30.21,29.79,12,3,14,0.00
2013-3-16,63.5,49.7,38.9,54.1,44.0,34.5,88,81,69,30.02,29.63,24,5,28,0.03
2013-3-17,38.9,35.4,33.0,35.0,31.9,29.8,89,87,83,30.15,29.99,12,4,14,0.01
2013-3-18,49.6,41.5,34.6,46.5,37.9,31.1,92,87,79,30.01,29.65,21,6,28,0.03
2013-3-19,44.9,38.0,29.7,35.5,25.3,17.1,89,63,35,30.14,29.85,34,10,37,0.00
2013-3-20,37.7,32.8,24.8,24.6,20.1,13.8,74,60,47,30.13,29.97,23,8,30,0.00
2013-3-21,33.7,26.6,21.5,17.9,14.6,10.9,78,61,47,30.08,29.97,14,4,18,0.00
2013-3-22,45.2,33.5,23.0,23.1,18.3,14.9,76,55,35,30.12,30.01,9,2,15,0.00
2013-3-23,52.1,42.0,34.6,29.6,24.9,19.7,68,51,36,30.09,29.90,9,2,12,0.00
2013-3-26,39.6,37.5,34.6,34.5,29.8,27.3,88,74,68,30.27,30.16,18,7,20,0.00
2013-3-27,43.9,37.0,29.5,32.4,28.5,26.2,88,72,55,30.34,30.26,18,6,20,0.00
2013-3-28,49.9,40.3,28.4,32.8,27.6,22.5,80,61,46,30.39,30.30,12,3,14,0.00
2013-3-29,55.7,44.8,32.0,36.0,31.5,26.9,85,61,38,30.35,30.21,10,2,14,0.00
2013-3-30,60.8,50.1,39.3,39.2,35.5,31.5,74,58,41,30.25,29.95,15,2,15,0.00
2013-3-31,56.9,50.4,46.0,48.9,43.9,38.3,88,79,61,29.95,29.78,14,4,21,0.00
2013-4-7,72.0,66.2,58.1,56.8,52.9,47.7,87,64,50,29.97,29.91,18,5,22,0.02
2013-4-8,71.8,63.6,55.3,58.8,54.7,50.2,87,74,59,29.99,29.87,21,5,28,0.00
2013-4-9,80.8,70.0,58.3,63.1,58.3,53.2,83,68,50,30.03,29.91,24,6,27,0.00
2013-4-10,82.9,74.0,65.3,66.7,62.4,59.2,83,68,53,29.95,29.73,26,7,29,0.00
2013-4-11,73.5,64.8,58.2,62.2,58.3,53.7,88,80,62,29.77,29.51,18,4,21,0.02
2013-4-12,58.2,47.6,40.9,53.8,40.5,34.1,92,77,63,29.93,29.50,21,8,28,0.00
2013-4-13,59.0,47.7,36.2,40.9,36.2,33.0,89,66,44,30.04,29.93,22,6,30,0.00
2013-4-14,72.0,56.4,40.7,49.7,42.9,36.3,91,63,38,30.06,29.87,11,4,13,0.00
2013-4-15,69.1,62.4,56.6,58.0,53.6,47.5,81,73,57,29.99,29.89,14,4,16,0.00
2013-4-16,80.9,65.9,58.0,68.1,59.6,53.8,87,81,63,30.15,29.94,27,5,36,0.07
2013-4-17,78.1,65.4,57.2,67.7,59.7,53.1,89,82,69,30.17,29.94,15,3,15,0.17
2013-4-18,81.2,72.5,62.3,66.2,60.7,55.9,88,69,47,29.95,29.58,28,9,35,0.00
2013-4-19,74.3,49.4,39.7,61.8,42.0,33.1,89,76,57,30.00,29.41,26,10,34,0.91
2013-4-20,50.6,43.0,35.4,35.2,32.2,28.7,89,67,47,30.41,30.00,19,5,24,0.00
2013-4-21,57.2,46.4,35.5,36.1,31.6,27.1,72,57,39,30.54,30.37,11,3,13,0.00
2013-4-22,70.4,55.9,39.9,46.6,38.9,30.3,72,54,39,30.38,30.13,10,2,12,0.00
2013-4-23,69.9,61.2,49.9,56.4,49.4,41.5,75,65,57,30.14,29.86,15,4,20,0.00
2013-4-24,64.6,51.6,38.9,56.3,45.4,35.8,92,80,66,30.23,29.77,22,7,25,0.79
2013-4-25,59.4,47.1,35.2,42.5,36.6,32.2,89,69,45,30.39,30.23,18,4,26,0.01
2013-4-26,62.5,51.7,38.8,39.0,34.7,31.5,78,54,37,30.47,30.33,7,1,10,0.00
2013-4-27,61.3,55.4,47.2,52.5,44.5,34.6,85,67,47,30.35,30.05,11,2,12,0.00
2013-4-28,67.3,58.8,54.6,60.6,54.5,50.5,88,86,77,30.05,29.82,12,3,19,0.24
2013-4-29,64.6,58.4,54.9,57.8,53.9,50.8,88,85,76,29.99,29.88,8,2,10,0.01
2013-4-30,77.8,64.7,50.3,60.4,54.5,46.3,89,71,48,30.04,29.96,10,1,11,0.00
2013-5-1,82.7,71.5,56.7,64.0,58.4,53.2,88,65,46,30.14,30.03,10,1,12,0.00
2013-5-2,74.1,67.8,59.8,60.4,56.3,52.5,78,67,55,30.17,30.06,9,2,13,0.00
2013-5-3,75.3,67.2,59.4,62.1,55.6,44.8,85,68,46,30.06,29.92,15,4,23,0.00
2013-5-4,72.5,63.6,56.8,55.9,49.4,44.3,85,61,47,29.98,29.89,12,4,18,0.01
2013-5-5,56.8,52.7,50.1,52.6,49.0,46.3,89,87,85,29.98,29.90,12,2,16,2.06
2013-5-6,61.8,57.5,52.1,57.2,53.6,47.8,89,87,84,29.94,29.88,20,4,20,0.73
2013-5-7,73.0,61.3,54.9,60.9,55.7,50.8,88,82,61,29.97,29.89,7,1,10,0.04
2013-5-8,77.0,63.3,53.5,64.2,56.6,49.4,89,80,51,30.00,29.91,13,2,14,0.04
2013-5-9,79.9,68.2,59.0,62.2,58.3,55.5,88,73,46,30.01,29.92,10,2,16,0.00
2013-5-10,69.5,64.9,62.0,63.6,59.7,57.5,87,84,72,29.92,29.79,14,3,27,0.60
2013-5-11,62.4,54.3,47.5,57.8,50.1,42.6,89,86,75,30.00,29.83,18,4,28,0.13
2013-5-12,55.7,48.4,39.6,42.5,37.5,33.3,92,68,45,30.14,29.99,15,3,24,0.00
2013-5-13,61.8,52.0,40.2,41.3,36.8,33.3,87,58,36,30.20,30.11,19,3,22,0.00
2013-5-14,81.2,64.2,49.1,61.8,48.8,33.9,71,58,48,30.15,29.82,21,4,25,0.00
2013-5-15,85.9,76.6,68.3,65.2,61.2,57.3,76,60,42,29.89,29.79,19,7,25,0.00
2013-5-16,75.4,68.3,62.9,66.8,60.7,55.6,87,77,62,29.95,29.82,11,3,16,0.17
2013-5-17,79.0,66.9,60.4,69.6,61.8,56.1,89,84,70,30.04,29.95,13,1,25,0.41
2013-5-18,77.3,68.1,63.6,70.3,63.4,59.0,89,85,75,30.04,29.93,6,0,11,0.13
2013-5-19,84.2,72.3,63.9,71.2,65.5,59.3,89,80,62,29.99,29.86,8,1,10,0.01
2013-5-20,85.4,75.6,66.6,73.9,69.0,62.6,88,81,64,29.98,29.86,13,3,15,0.00
2013-5-21,83.8,74.6,67.0,71.1,67.3,63.3,88,79,58,29.95,29.77,15,4,25,0.00
2013-5-22,79.1,69.3,62.2,68.2,63.4,58.3,89,82,66,29.83,29.70,15,4,23,0.23
2013-5-23,68.6,63.3,53.9,62.5,58.2,49.3,89,84,70,30.05,29.77,14,5,22,0.09
2013-5-24,65.0,56.2,48.9,49.9,45.6,42.2,86,69,47,30.31,30.05,13,2,20,0.00
2013-5-25,65.6,56.3,45.1,51.8,46.4,42.1,89,71,49,30.39,30.21,7,1,10,0.00
2013-5-26,70.9,61.8,55.0,54.3,51.4,49.2,86,70,51,30.30,30.16,6,1,10,0.00
2013-5-27,83.8,69.1,53.6,65.2,56.9,49.6,89,67,43,30.18,29.93,12,3,20,0.22
2013-5-28,82.5,75.6,67.6,69.3,63.8,60.7,84,68,53,30.01,29.90,18,5,22,0.00
2013-5-29,85.5,76.8,68.6,68.4,64.8,61.2,80,67,50,30.06,29.95,15,4,23,0.00
2013-5-30,86.9,77.6,67.2,73.1,68.1,62.5,87,73,59,30.11,29.97,15,3,16,0.00
2013-5-31,82.1,72.6,67.3,71.4,66.7,63.4,89,82,67,30.03,29.92,20,4,30,0.76
2013-6-1,79.7,73.2,68.8,72.0,68.1,64.8,89,84,72,29.95,29.75,19,5,29,0.37
2013-6-2,77.2,70.1,65.6,66.3,63.2,61.0,89,79,61,29.89,29.79,12,4,14,0.00
2013-6-3,70.2,63.9,57.2,61.7,56.0,52.1,86,76,62,30.04,29.88,13,2,14,0.00
2013-6-4,74.9,64.2,53.4,54.9,50.7,45.7,89,64,39,30.12,30.03,14,1,15,0.00
2013-6-5,82.1,68.5,56.8,67.2,58.9,48.9,88,72,57,30.06,29.83,8,1,10,0.00
2013-6-6,73.1,67.7,63.5,68.1,63.5,59.9,89,86,78,29.85,29.74,8,1,12,0.53
2013-6-7,75.9,66.7,59.1,64.5,59.9,55.2,90,80,63,29.86,29.76,9,1,12,0.00
2013-6-8,77.3,68.0,58.0,67.1,61.4,54.8,89,80,64,30.00,29.85,7,1,9,0.00
2013-6-9,80.6,70.8,63.1,69.6,65.1,59.5,89,83,63,30.04,29.88,7,1,15,0.02
2013-6-10,76.6,68.6,64.4,69.1,64.1,60.1,90,85,73,29.88,29.76,10,3,15,0.69
2013-6-11,84.3,73.4,63.3,69.5,65.5,59.7,89,77,58,29.95,29.84,11,4,15,0.01
2013-6-12,90.5,80.1,71.2,78.5,72.8,67.5,88,79,63,29.90,29.70,13,3,19,0.00
2013-6-13,82.1,75.3,66.8,74.7,67.1,57.9,89,76,60,29.89,29.58,18,4,22,0.57
2013-6-14,80.6,69.6,57.4,65.0,59.6,54.2,89,72,51,30.02,29.88,9,1,12,0.00
2013-6-15,83.8,73.0,60.5,68.0,62.9,57.2,89,72,54,30.09,29.92,10,2,14,0.00
2013-6-16,76.7,72.0,67.7,70.7,66.9,64.0,89,84,73,30.01,29.92,10,2,12,0.08
2013-6-17,85.8,74.5,64.8,73.5,67.7,60.8,90,80,60,29.96,29.84,18,1,21,0.00
2013-6-18,84.1,70.9,64.5,71.6,65.6,60.9,90,84,63,29.95,29.81,7,1,14,0.17
2013-6-19,79.9,69.8,58.9,63.5,60.1,56.0,92,73,50,30.09,29.94,8,1,11,0.01
2013-6-20,85.5,73.8,61.8,67.4,61.7,57.0,87,67,45,30.17,30.09,7,1,10,0.00
2013-6-21,87.5,76.7,64.3,70.9,66.1,60.3,88,71,50,30.18,30.08,8,1,12,0.00
2013-6-22,89.4,77.2,69.3,74.4,69.6,65.9,89,78,55,30.15,30.02,12,2,13,0.00
2013-6-23,88.2,75.8,66.3,73.4,68.1,62.6,90,78,55,30.12,30.02,12,2,16,0.00
2013-6-24,85.7,76.0,67.7,74.5,69.8,64.3,89,82,66,30.11,30.00,11,2,14,0.00
2013-6-25,89.9,78.6,67.9,77.7,71.5,64.1,90,80,61,30.04,29.86,13,3,19,0.00
2013-6-26,85.0,73.1,67.0,77.1,68.3,63.0,90,85,71,29.92,29.74,12,3,25,1.18
2013-6-27,84.3,74.1,66.6,74.9,68.4,62.6,90,83,70,29.77,29.67,13,3,18,0.00
2013-6-28,84.0,75.0,65.8,71.6,67.3,62.8,90,78,51,29.68,29.55,16,5,25,0.04
2013-6-29,74.5,68.2,63.6,70.4,64.5,60.0,90,88,79,29.64,29.55,11,1,12,0.45
2013-6-30,79.8,69.5,62.2,70.6,64.4,58.4,91,84,64,29.79,29.62,8,1,11,0.04
2013-7-1,78.7,69.2,64.5,71.7,65.4,61.1,90,88,74,29.89,29.77,8,1,11,0.68
2013-7-2,81.3,71.5,64.9,72.1,66.1,60.9,91,83,66,29.99,29.88,8,1,9,0.00
2013-7-3,80.3,74.0,68.1,73.5,69.3,64.8,90,86,73,30.09,29.99,8,1,11,0.03
2013-7-4,73.4,69.5,67.2,69.9,65.7,63.2,90,88,86,30.12,30.04,8,1,11,1.71
2013-7-5,77.0,70.3,65.8,72.6,66.6,61.8,91,88,85,30.12,30.06,9,1,11,0.22
2013-7-6,74.8,70.0,66.7,72.2,66.5,63.4,92,89,87,30.11,30.03,10,1,13,2.15
2013-7-7,82.3,72.7,65.7,72.0,66.7,61.7,91,82,65,30.10,30.01,9,2,11,0.00
2013-7-8,86.5,77.1,68.6,75.1,70.8,65.6,90,81,67,30.11,30.00,10,2,13,0.00
2013-7-9,87.6,79.3,74.9,78.3,73.7,71.4,89,83,72,30.05,30.00,14,4,19,0.08
2013-7-10,88.9,78.4,70.4,80.4,73.3,66.7,90,85,73,29.91,29.79,19,3,26,0.10
2013-7-11,81.5,72.7,67.8,71.9,66.1,60.2,91,80,66,29.99,29.89,10,1,11,0.01
2013-7-12,79.1,70.3,61.7,64.0,60.9,58.0,88,73,54,30.07,29.99,9,2,16,0.00
2013-7-13,83.1,74.1,65.8,71.2,66.6,61.5,88,78,64,30.10,30.01,10,2,13,0.00
2013-7-14,89.7,78.8,69.4,78.4,72.2,66.3,90,81,66,30.18,30.08,9,1,19,0.00
2013-7-15,90.1,80.6,71.1,77.1,72.6,67.7,90,77,59,30.27,30.18,9,0,10,0.01
2013-7-16,91.8,82.8,72.8,78.5,73.9,69.4,90,75,56,30.29,30.21,6,0,9,0.00
2013-7-17,92.2,82.7,74.3,79.6,76.0,70.8,90,81,61,30.27,30.14,8,0,9,0.01
2013-7-18,92.4,84.3,75.2,78.2,75.5,71.7,90,76,56,30.16,29.98,8,1,10,0.00
2013-7-19,89.1,81.0,75.6,78.5,75.5,72.1,90,83,68,30.01,29.85,13,2,14,0.02
2013-7-20,88.4,78.0,72.9,76.7,72.7,69.3,90,84,65,29.89,29.81,14,3,24,0.02
2013-7-21,87.3,76.9,70.1,75.6,71.1,66.7,90,83,60,29.93,29.83,8,0,8,0.00
2013-7-22,80.1,73.1,69.0,74.3,69.2,65.2,91,88,80,29.88,29.73,10,2,15,1.04
2013-7-23,85.2,75.8,69.2,77.2,71.1,65.2,91,85,75,29.81,29.69,10,2,18,0.00
2013-7-24,77.2,68.7,60.1,69.6,62.6,57.4,91,81,62,29.96,29.78,6,1,11,0.00
2013-7-25,77.4,67.9,57.5,63.6,59.0,54.8,91,74,53,30.06,29.97,7,1,11,0.00
2013-7-26,80.0,70.6,58.9,66.0,62.0,56.1,91,75,57,30.07,29.94,9,1,12,0.00
2013-7-27,75.2,68.8,65.1,67.6,63.9,59.5,91,85,66,29.94,29.82,10,3,16,0.16
2013-7-28,73.0,64.6,54.2,59.7,54.7,51.3,92,72,51,30.04,29.88,12,3,16,0.00
2013-7-29,78.0,67.9,58.2,62.8,57.9,53.8,86,71,53,30.16,30.04,11,2,15,0.00
2013-7-30,78.6,69.8,59.8,68.3,62.8,56.8,92,79,61,30.19,30.09,4,0,6,0.00
2013-7-31,74.9,69.8,64.4,70.8,66.0,60.8,91,88,84,30.09,29.91,10,1,18,0.08
2013-8-1,81.1,72.6,67.9,68.3,64.7,59.0,91,77,56,29.97,29.89,14,3,21,0.00
2013-8-2,82.1,72.1,60.6,68.1,63.2,57.7,92,75,55,30.00,29.93,12,2,15,0.00
2013-8-3,80.0,73.1,67.4,73.6,67.7,63.7,90,83,72,30.00,29.93,7,1,10,0.37
2013-8-4,77.8,69.5,60.0,65.3,59.9,56.1,88,72,50,30.10,29.99,8,1,11,0.00
2013-8-5,80.3,69.5,57.5,63.6,59.6,54.6,92,72,49,30.09,29.94,8,1,9,0.00
2013-8-6,81.2,73.0,65.8,72.7,66.2,60.4,90,80,67,29.96,29.89,10,1,11,0.00
2013-8-7,84.7,76.7,69.5,76.8,72.0,65.8,91,86,75,29.91,29.83,9,2,11,0.00
2013-8-8,86.1,76.0,70.0,77.2,71.7,66.2,91,87,71,29.92,29.84,21,2,30,0.33
2013-8-9,83.2,74.8,68.4,76.9,70.1,64.4,91,85,73,30.00,29.87,12,2,19,1.13
2013-8-10,83.9,75.7,69.9,73.8,70.3,66.0,90,84,66,30.08,29.98,6,0,7,0.05
2013-8-11,85.8,77.2,71.5,74.7,70.4,66.8,90,80,61,30.06,29.98,11,1,14,0.02
2013-8-12,83.8,75.4,66.6,75.2,69.4,63.6,90,82,66,30.05,29.84,9,1,12,0.00
2013-8-13,78.6,72.5,63.1,70.6,65.5,53.5,90,79,65,30.02,29.81,12,2,14,0.00
2013-8-14,71.7,62.3,54.6,55.5,52.8,50.9,89,72,52,30.15,30.02,9,1,12,0.00
2013-8-15,73.3,63.1,52.6,59.7,55.4,49.5,91,77,58,30.15,30.06,7,1,9,0.00
2013-8-16,77.2,67.4,56.7,61.8,58.3,53.8,90,74,54,30.13,30.08,9,1,12,0.00
2013-8-17,82.4,70.4,59.8,67.9,61.6,56.2,89,75,52,30.15,30.08,8,1,11,0.00
2013-8-18,80.8,71.0,61.9,69.3,64.6,58.5,90,81,58,30.15,30.06,7,0,9,0.00
2013-8-19,84.3,73.1,63.3,68.9,64.3,59.4,91,75,53,30.11,30.03,8,0,8,0.00
2013-8-20,85.1,74.8,64.9,72.0,66.9,61.3,90,77,57,30.14,30.05,7,1,10,0.00
2013-8-21,85.3,75.3,67.6,74.2,69.6,64.0,90,83,57,30.13,30.03,8,1,10,0.01
2013-8-22,86.8,75.6,67.6,74.3,69.5,64.1,90,82,58,30.09,29.99,12,2,14,0.03
2013-8-23,84.2,74.0,67.4,72.6,67.3,63.5,90,80,57,30.10,30.00,6,0,10,0.04
2013-8-24,85.7,74.4,63.2,70.8,64.4,59.9,89,73,48,30.22,30.10,8,1,11,0.00
2013-8-25,86.3,74.6,62.2,67.5,62.7,58.9,90,68,45,30.30,30.19,7,0,8,0.00
2013-8-26,86.6,76.6,66.9,74.2,68.3,59.3,89,76,57,30.22,30.05,10,2,13,0.00
2013-8-27,88.3,79.1,71.3,78.2,73.3,67.6,90,83,69,30.06,29.92,9,3,11,0.00
2013-8-28,92.8,81.5,73.7,76.9,73.7,69.8,90,78,56,29.95,29.83,16,5,21,0.00
2013-8-29,84.8,77.5,71.1,76.0,71.6,67.4,90,83,64,30.00,29.90,7,1,12,0.00
2013-8-30,88.7,78.1,68.0,73.4,69.6,64.2,90,76,56,29.96,29.81,10,2,13,0.00
2013-8-31,90.9,76.9,68.0,78.7,71.3,64.3,91,83,66,29.89,29.69,19,2,31,1.39
2013-9-1,83.7,74.4,67.0,75.4,69.3,63.0,91,85,72,29.81,29.74,10,2,15,0.02
2013-9-2,85.1,77.0,70.9,75.4,69.8,62.7,91,79,64,29.84,29.75,11,3,15,0.00
2013-9-3,74.7,67.9,60.6,62.8,59.8,57.2,90,76,59,30.04,29.84,14,1,18,0.00
2013-9-4,80.1,68.6,56.7,65.2,60.5,53.6,92,77,54,30.13,30.04,8,1,11,0.00
2013-9-5,84.9,73.2,61.4,67.9,63.1,58.5,91,73,48,30.16,30.09,7,1,10,0.00
2013-9-6,80.6,68.7,57.5,61.1,56.0,51.9,84,65,44,30.20,30.08,8,1,12,0.00
2013-9-7,85.0,72.6,58.5,70.3,63.4,55.3,90,74,57,30.08,29.93,12,2,14,0.00
2013-9-8,89.1,78.0,68.8,72.6,69.2,65.8,90,76,52,29.95,29.89,7,1,9,0.00
2013-9-9,90.0,79.1,68.4,74.9,70.6,64.7,90,76,55,30.01,29.92,14,2,15,0.00
2013-9-10,91.7,81.4,74.0,78.7,74.1,70.6,90,79,62,30.10,29.98,12,3,14,0.00
2013-9-11,89.0,79.6,72.4,76.2,72.5,69.3,90,80,60,30.12,29.99,9,2,14,0.00
2013-9-12,77.8,73.8,63.8,73.4,69.6,60.8,90,87,73,29.99,29.84,22,4,24,0.33
2013-9-13,66.1,60.8,54.3,63.1,52.1,47.0,90,74,56,30.07,29.87,13,2,18,0.00
2013-9-14,69.9,58.0,47.4,51.6,48.0,44.9,91,71,47,30.17,30.07,7,1,9,0.00
2013-9-15,78.5,63.7,49.0,61.9,55.0,46.2,91,75,54,30.13,30.01,12,2,19,0.00
2013-9-16,71.4,63.9,59.5,61.9,58.5,54.3,92,83,68,30.25,30.04,7,1,12,0.10
2013-9-17,74.9,63.2,52.3,60.3,55.3,49.8,91,77,54,30.30,30.14,9,2,13,0.00
2013-9-18,76.1,66.4,58.7,68.2,61.6,54.9,90,85,72,30.15,30.05,8,1,11,0.00
2013-9-19,77.7,69.9,65.1,71.8,65.8,61.4,91,87,80,30.08,29.95,11,2,14,0.27
2013-9-20,85.3,73.3,67.7,72.8,67.7,64.3,90,83,63,29.98,29.76,15,3,21,2.01
2013-9-21,72.1,65.6,59.6,64.9,58.9,52.4,92,80,59,29.85,29.67,15,2,20,1.18
2013-9-22,67.3,59.0,50.1,52.9,50.1,47.6,91,74,54,30.00,29.85,10,1,12,0.00
2013-9-23,69.0,58.1,48.1,54.2,50.1,45.3,91,76,54,30.09,30.00,9,1,11,0.00
2013-9-24,75.1,60.2,47.8,62.7,54.1,45.3,91,81,64,30.07,29.89,8,1,10,0.00
2013-9-25,72.8,63.3,55.9,62.0,56.5,53.0,91,80,58,29.91,29.85,9,1,11,0.00
2013-9-26,77.8,64.3,50.6,64.0,57.1,47.6,92,79,59,30.04,29.90,6,0,9,0.00
2013-9-27,79.4,66.6,54.4,63.3,56.4,51.5,91,72,44,30.15,30.04,7,0,8,0.00
2013-9-28,80.3,67.6,53.7,63.1,58.0,50.5,91,73,50,30.17,30.04,8,1,11,0.00
2013-9-29,70.3,64.2,60.7,62.3,59.8,57.4,90,86,74,30.04,29.99,13,3,16,0.01
2013-9-30,74.4,66.0,60.9,65.0,61.3,57.6,92,85,72,30.02,29.93,8,1,13,0.00
2013-10-1,77.8,68.5,61.3,66.8,62.8,58.3,92,82,67,30.07,29.99,12,2,12,0.00
2013-10-2,78.8,69.6,63.5,71.6,65.6,60.1,90,87,77,30.10,30.01,6,1,7,0.00
2013-10-3,80.3,71.6,67.7,71.3,66.8,63.7,91,85,66,30.07,29.98,10,1,12,0.08
2013-10-4,83.8,73.5,65.0,71.4,67.0,61.4,91,81,63,30.07,29.99,11,2,13,0.00
2013-10-5,78.6,71.6,67.3,72.3,67.6,63.3,90,87,79,30.04,29.91,10,2,15,1.19
2013-10-6,72.8,63.8,53.5,69.7,60.3,50.6,92,88,87,29.94,29.69,16,3,22,2.44
2013-10-7,61.6,53.4,46.4,51.2,47.7,44.2,92,82,63,30.15,29.81,15,3,19,0.00
2013-10-8,66.6,55.5,43.5,52.9,47.9,40.8,92,77,53,30.27,30.15,9,1,14,0.01
2013-10-9,72.8,59.6,48.7,56.8,49.9,45.9,92,72,46,30.23,30.14,8,1,9,0.00
2013-10-10,72.6,60.1,48.9,52.7,48.9,46.1,91,69,43,30.18,30.05,6,0,6,0.00
2013-10-11,78.1,64.2,51.0,58.2,53.5,48.2,91,70,47,30.10,30.00,5,0,7,0.00
2013-10-12,78.9,65.6,54.2,63.6,57.7,51.3,92,77,54,30.10,30.00,6,1,7,0.00
2013-10-13,73.4,63.6,55.5,64.8,57.2,47.3,91,80,65,30.27,30.09,9,0,10,0.00
2013-10-14,72.0,60.3,48.8,55.7,50.1,44.5,89,70,50,30.31,30.15,8,1,10,0.00
2013-10-15,72.9,64.2,56.1,65.9,59.6,52.9,92,85,76,30.17,29.93,10,2,15,0.00
2013-10-16,66.3,62.1,53.2,62.4,58.3,48.9,91,87,80,29.95,29.88,11,3,20,0.13
2013-10-17,54.9,49.9,45.6,50.5,46.6,42.8,91,88,81,29.99,29.88,19,2,19,0.15
2013-10-18,64.7,53.5,44.8,51.6,46.3,42.2,91,78,55,30.05,29.94,13,3,15,0.01
2013-10-19,54.3,47.5,42.6,47.7,44.2,39.7,94,88,76,30.01,29.83,14,2,19,0.17
2013-10-20,61.6,49.5,39.3,47.3,42.1,36.9,91,77,55,30.06,30.00,15,4,19,0.00
2013-10-21,65.0,54.2,41.8,50.7,44.3,38.6,92,71,50,30.03,29.90,13,4,23,0.00
2013-10-22,53.2,45.2,35.0,49.5,36.7,31.3,91,73,47,30.05,29.85,10,2,16,0.16
2013-10-23,45.8,42.4,37.7,41.8,37.5,33.2,91,83,64,30.06,29.73,13,3,19,0.07
2013-10-24,44.5,39.9,37.1,36.5,35.0,32.7,92,83,64,30.29,30.05,14,4,19,0.01
2013-10-25,48.2,39.4,30.3,34.8,30.9,28.0,91,73,50,30.47,30.29,10,4,12,0.00
2013-10-26,53.8,43.2,33.2,42.7,33.8,27.7,80,70,58,30.32,29.96,18,5,24,0.00
2013-10-27,58.6,48.8,38.5,41.6,38.4,35.5,90,69,46,30.12,30.05,8,1,10,0.00
2013-10-28,64.9,49.9,35.5,43.3,38.3,32.9,91,67,37,30.28,30.08,8,0,9,0.00
2013-10-29,56.5,49.5,39.7,51.3,44.0,36.3,89,81,67,30.35,30.20,6,0,7,0.00
2013-10-30,63.4,58.1,52.6,59.5,54.4,49.2,90,87,87,30.20,30.00,6,0,9,0.15
2013-10-31,66.0,63.9,60.2,63.0,59.7,57.3,91,86,81,30.01,29.36,29,8,41,0.61
2013-11-1,63.4,56.8,49.8,56.6,49.8,46.9,92,78,58,29.74,29.42,20,6,41,0.13
2013-11-2,56.7,49.8,43.0,46.4,42.0,37.9,89,75,57,30.09,29.73,14,5,24,0.00
2013-11-3,54.9,45.6,39.4,43.8,38.8,36.8,91,78,53,30.37,30.09,8,1,9,0.00
2013-11-4,59.4,48.9,38.9,46.7,41.2,35.1,88,75,59,30.42,30.31,10,2,13,0.00
2013-11-5,61.6,54.7,50.2,47.7,44.6,40.8,80,69,58,30.41,30.21,8,1,11,0.00
2013-11-6,65.5,57.1,46.0,59.1,50.2,39.8,91,78,63,30.22,29.97,24,6,28,0.32
2013-11-7,48.5,43.6,39.9,43.5,35.2,29.0,91,74,50,30.27,30.02,15,5,24,0.04
2013-11-8,51.7,41.6,31.3,35.2,32.0,29.0,91,70,46,30.40,30.22,13,3,21,0.00
2013-11-9,60.9,49.0,35.6,39.6,34.9,29.1,78,59,43,30.26,30.05,20,5,26,0.00
2013-11-10,51.2,46.2,38.4,42.6,35.0,29.3,85,66,45,30.35,30.11,21,4,23,0.00
2013-11-11,59.5,46.1,33.2,44.5,34.5,29.2,90,67,35,30.32,30.10,19,4,24,0.05
2013-11-12,38.5,31.3,27.3,35.5,24.9,21.4,91,78,58,30.65,30.23,13,4,21,0.06
2013-11-13,40.5,31.3,22.4,25.1,22.6,20.1,91,72,45,30.68,30.43,10,3,14,0.00
2013-11-14,54.5,41.5,30.5,27.1,23.9,21.8,73,52,28,30.43,30.18,16,6,21,0.00
2013-11-15,53.2,46.3,38.9,44.3,32.6,23.8,90,60,45,30.20,30.11,13,4,18,0.04
2013-11-16,60.0,52.8,46.9,56.4,49.6,43.8,92,89,87,30.15,29.92,15,4,16,0.00
2013-11-17,64.9,60.0,52.7,61.5,55.6,43.8,90,86,66,29.92,29.51,47,9,47,0.99
2013-11-18,53.3,47.8,39.0,44.2,37.5,30.6,85,68,48,30.19,29.79,23,8,29,0.13
2013-11-19,40.9,36.4,32.4,32.0,29.9,27.8,86,77,69,30.36,30.19,11,2,14,0.06
2013-11-20,51.1,40.1,30.4,37.1,31.6,26.4,86,73,56,30.35,30.24,10,3,12,0.29
2013-11-21,54.5,48.7,42.6,49.8,40.6,33.8,90,74,63,30.34,30.20,9,2,13,0.07
2013-11-22,54.8,49.4,38.8,51.8,45.8,32.6,91,87,77,30.36,30.17,16,4,23,0.02
2013-11-23,39.6,32.6,24.4,33.4,24.9,15.0,91,74,48,30.58,30.35,22,6,27,0.02
2013-11-24,28.0,22.8,17.5,17.0,13.0,8.5,76,66,57,30.73,30.56,11,2,20,0.00
2013-11-25,40.3,30.5,20.7,30.6,20.1,14.1,90,66,47,30.57,30.22,15,4,26,0.01
2013-11-26,33.8,32.6,32.1,31.1,29.9,29.2,91,89,89,30.24,29.93,6,0,9,0.04
2013-11-27,33.0,27.8,22.1,30.3,22.5,15.6,91,80,72,30.33,29.93,19,7,24,0.00
2013-11-28,34.4,26.3,18.8,22.8,18.2,13.7,84,72,59,30.49,30.33,13,3,18,0.02
2013-11-29,39.8,31.2,24.1,28.0,23.4,18.6,86,73,60,30.66,30.48,6,1,8,0.07
2013-11-30,52.0,38.6,27.7,35.0,29.3,23.8,92,70,51,30.54,30.19,10,3,14,0.03
2013-12-1,52.6,46.5,42.0,40.7,35.8,30.4,73,66,62,30.20,29.96,10,4,14,0.00
2013-12-2,51.5,45.9,40.0,42.4,39.3,35.9,87,78,70,29.96,29.78,6,1,8,0.00
2013-12-3,52.5,46.5,38.6,48.0,43.2,35.8,90,88,83,29.88,29.79,8,2,13,0.00
2013-12-4,62.7,55.2,47.8,58.8,51.9,45.0,90,89,87,29.87,29.72,13,4,16,0.01
2013-12-5,63.2,49.3,33.0,59.7,46.1,30.7,91,89,85,30.16,29.76,20,6,20,0.15
2013-12-6,33.0,29.6,27.1,30.7,27.2,24.7,91,91,90,30.41,30.11,10,2,12,0.02
2013-12-7,27.5,24.5,20.6,25.3,22.0,18.1,92,90,85,30.62,30.40,7,1,10,0.07
2013-12-8,32.9,25.7,20.6,30.0,23.2,18.1,98,90,89,30.56,30.05,9,3,14,0.00
2013-12-9,33.5,30.0,26.1,30.6,27.4,23.6,92,90,88,30.26,30.04,14,5,19,0.00
2013-12-10,29.5,24.1,20.2,23.6,19.9,16.7,92,84,71,30.40,30.18,14,5,22,0.00
2013-12-11,35.4,25.3,18.1,27.5,20.6,14.9,99,82,70,30.54,30.33,18,4,21,0.02
2013-12-12,25.6,18.8,9.9,15.1,11.0,5.9,89,72,52,30.61,30.39,11,4,13,0.00
2013-12-13,39.5,30.6,21.3,31.5,20.9,14.1,89,68,53,30.40,30.17,13,4,20,0.06
2013-12-14,40.0,36.1,33.4,36.7,33.3,30.8,92,89,88,30.17,29.72,18,5,21,0.76
2013-12-15,33.9,29.5,27.9,31.4,25.9,23.8,92,86,77,30.16,29.89,19,8,25,0.00
2013-12-16,36.0,32.2,28.2,33.6,29.7,24.9,92,90,86,30.16,30.02,7,2,11,0.05
2013-12-17,37.5,32.4,29.8,34.8,29.2,26.4,91,88,82,30.20,30.01,19,6,22,0.03
2013-12-18,38.8,31.6,25.4,26.7,23.1,20.6,91,72,48,30.31,30.09,14,5,16,0.02
2013-12-19,56.4,48.0,38.0,45.1,35.1,24.3,72,61,55,30.12,29.97,20,7,26,0.14
2013-12-20,60.2,54.4,49.1,57.1,47.6,37.9,92,79,56,29.98,29.83,23,8,23,0.02
2013-12-21,66.7,61.0,57.7,63.4,57.5,54.1,90,88,87,29.84,29.45,25,8,38,0.14
2013-12-22,61.4,52.8,38.8,58.0,49.2,36.1,92,87,80,30.03,29.53,22,8,29,0.04
2013-12-23,39.0,32.6,26.6,36.6,27.8,21.1,91,82,75,30.41,30.02,20,8,25,0.04
2013-12-24,26.7,19.9,14.7,22.2,14.4,10.1,90,79,69,30.59,30.39,19,5,23,0.00
2013-12-25,36.5,27.5,18.0,24.0,18.6,14.4,92,70,47,30.54,30.24,13,3,16,0.05
2013-12-26,40.9,35.4,31.7,28.6,26.2,24.0,83,70,53,30.39,30.22,21,6,23,0.13
2013-12-27,49.3,38.8,30.6,34.5,29.5,25.2,81,70,55,30.44,30.31,12,4,13,0.16
2013-12-28,51.9,43.1,36.2,35.8,32.1,29.3,76,66,53,30.32,30.03,13,4,16,0.13
2013-12-29,43.8,39.3,33.0,40.7,35.6,30.4,95,87,60,30.05,29.82,20,5,26,0.08
2013-12-30,33.1,27.9,23.3,30.4,23.4,18.9,91,83,79,30.26,30.04,14,6,20,0.02
2013-12-31,35.3,28.5,23.0,24.0,20.5,17.9,85,72,58,30.42,30.21,19,6,24,0.01
2014-1-1,46.9,36.2,26.1,33.3,27.2,23.0,89,71,52,30.32,30.02,16,2,16,0.19
2014-1-2,38.8,26.2,12.4,32.5,22.7,9.0,91,87,63,30.31,29.83,13,1,21,0.10